Tallulah Falls, Georgia
Current Conditions -  °F | °C
As of 12:55 PM on Monday 24 Nov 2014 (Local Time) from KTOC Reporting Station
Clear Clear  
Wind Chill: 68°   Ceiling: Unl
Heat Index: 68°   Visibility: 10mi
Dew Point: 59°   Wind: 6mph
Humidity: 73%   Direction: 210°SSW
Pressure: 29.8"   Gusts: NA
Location:  34.73°N, 83.39°W
Report Text: KTOC 241755Z AUTO 21005KT 10SM CLR 20/15 A2980 RMK AO2 T01980148 10200 20140
Loading
Personal Weather Stations






























Interactive Weather Map New forecast layout! Learn more

10-Day Weather Forecast

Advertisements
Track Severe Weather on mobile